sensor_id;sensor_type;location;lat;lon;timestamp;P1;durP1;ratioP1;P2;durP2;ratioP2
10389;SDS011;5241;47.830;12.972;2022-10-31T00:00:04;12.17;;;7.37;;
10389;SDS011;5241;47.830;12.972;2022-10-31T00:02:31;11.30;;;8.03;;
10389;SDS011;5241;47.830;12.972;2022-10-31T00:04:57;11.03;;;6.97;;
10389;SDS011;5241;47.830;12.972;2022-10-31T00:07:22;12.90;;;7.20;;
10389;SDS011;5241;47.830;12.972;2022-10-31T00:09:48;12.97;;;8.30;;
10389;SDS011;5241;47.830;12.972;2022-10-31T00:12:13;12.03;;;7.50;;
10389;SDS011;5241;47.830;12.972;2022-10-31T00:14:39;12.97;;;8.63;;
10389;SDS011;5241;47.830;12.972;2022-10-31T00:17:04;16.00;;;8.53;;
10389;SDS011;5241;47.830;12.972;2022-10-31T00:19:30;14.13;;;9.93;;
10389;SDS011;5241;47.830;12.972;2022-10-31T00:21:55;15.13;;;10.07;;
10389;SDS011;5241;47.830;12.972;2022-10-31T00:24:21;14.63;;;9.13;;
10389;SDS011;5241;47.830;12.972;2022-10-31T00:26:46;12.77;;;9.13;;
10389;SDS011;5241;47.830;12.972;2022-10-31T00:29:12;11.60;;;8.03;;
10389;SDS011;5241;47.830;12.972;2022-10-31T00:31:38;11.37;;;7.93;;
10389;SDS011;5241;47.830;12.972;2022-10-31T00:34:03;12.80;;;7.60;;
10389;SDS011;5241;47.830;12.972;2022-10-31T00:36:29;13.20;;;7.77;;
10389;SDS011;5241;47.830;12.972;2022-10-31T00:38:55;12.27;;;6.97;;
10389;SDS011;5241;47.830;12.972;2022-10-31T00:41:20;11.37;;;7.37;;
10389;SDS011;5241;47.830;12.972;2022-10-31T00:43:46;12.90;;;7.57;;
10389;SDS011;5241;47.830;12.972;2022-10-31T00:46:12;12.50;;;7.83;;
10389;SDS011;5241;47.830;12.972;2022-10-31T00:48:37;11.83;;;7.80;;
10389;SDS011;5241;47.830;12.972;2022-10-31T00:51:04;14.47;;;7.87;;
10389;SDS011;5241;47.830;12.972;2022-10-31T00:53:30;13.77;;;7.47;;
10389;SDS011;5241;47.830;12.972;2022-10-31T00:55:55;12.90;;;7.67;;
10389;SDS011;5241;47.830;12.972;2022-10-31T00:58:21;12.23;;;7.73;;
10389;SDS011;5241;47.830;12.972;2022-10-31T01:00:47;12.80;;;7.73;;
10389;SDS011;5241;47.830;12.972;2022-10-31T01:03:19;10.87;;;7.10;;
10389;SDS011;5241;47.830;12.972;2022-10-31T01:06:08;15.70;;;8.17;;
10389;SDS011;5241;47.830;12.972;2022-10-31T01:08:36;11.80;;;7.50;;
10389;SDS011;5241;47.830;12.972;2022-10-31T01:11:21;13.13;;;8.57;;
10389;SDS011;5241;47.830;12.972;2022-10-31T01:13:49;10.73;;;7.30;;
10389;SDS011;5241;47.830;12.972;2022-10-31T01:16:17;11.60;;;7.97;;
10389;SDS011;5241;47.830;12.972;2022-10-31T01:18:43;11.17;;;7.47;;
10389;SDS011;5241;47.830;12.972;2022-10-31T01:23:37;12.73;;;7.93;;
10389;SDS011;5241;47.830;12.972;2022-10-31T01:26:04;10.73;;;7.50;;
10389;SDS011;5241;47.830;12.972;2022-10-31T01:28:32;9.57;;;7.80;;
10389;SDS011;5241;47.830;12.972;2022-10-31T01:31:06;12.40;;;7.70;;
10389;SDS011;5241;47.830;12.972;2022-10-31T01:33:33;11.43;;;7.70;;
10389;SDS011;5241;47.830;12.972;2022-10-31T01:35:59;11.90;;;7.50;;
10389;SDS011;5241;47.830;12.972;2022-10-31T01:38:25;11.93;;;7.43;;
10389;SDS011;5241;47.830;12.972;2022-10-31T01:40:51;11.23;;;7.40;;
10389;SDS011;5241;47.830;12.972;2022-10-31T01:43:17;15.70;;;7.50;;
10389;SDS011;5241;47.830;12.972;2022-10-31T01:45:43;12.57;;;6.73;;
10389;SDS011;5241;47.830;12.972;2022-10-31T01:48:16;16.27;;;6.73;;
10389;SDS011;5241;47.830;12.972;2022-10-31T01:50:45;8.70;;;6.43;;
10389;SDS011;5241;47.830;12.972;2022-10-31T01:53:16;10.93;;;6.43;;
10389;SDS011;5241;47.830;12.972;2022-10-31T01:55:43;12.97;;;6.77;;
10389;SDS011;5241;47.830;12.972;2022-10-31T01:58:12;9.67;;;6.37;;
10389;SDS011;5241;47.830;12.972;2022-10-31T02:00:41;9.30;;;6.43;;
10389;SDS011;5241;47.830;12.972;2022-10-31T02:03:10;10.63;;;6.13;;
10389;SDS011;5241;47.830;12.972;2022-10-31T02:05:36;9.30;;;6.27;;
10389;SDS011;5241;47.830;12.972;2022-10-31T02:10:44;10.73;;;6.60;;
10389;SDS011;5241;47.830;12.972;2022-10-31T02:13:10;9.37;;;6.70;;
10389;SDS011;5241;47.830;12.972;2022-10-31T02:15:40;12.27;;;6.90;;
10389;SDS011;5241;47.830;12.972;2022-10-31T02:18:09;12.97;;;6.93;;
10389;SDS011;5241;47.830;12.972;2022-10-31T02:23:58;10.63;;;6.07;;
10389;SDS011;5241;47.830;12.972;2022-10-31T02:26:37;11.37;;;6.37;;
10389;SDS011;5241;47.830;12.972;2022-10-31T02:38:21;10.03;;;6.47;;
10389;SDS011;5241;47.830;12.972;2022-10-31T02:44:01;8.33;;;6.23;;
10389;SDS011;5241;47.830;12.972;2022-10-31T02:46:43;12.13;;;6.63;;
10389;SDS011;5241;47.830;12.972;2022-10-31T02:52:13;13.43;;;6.83;;
10389;SDS011;5241;47.830;12.972;2022-10-31T02:54:42;9.33;;;5.60;;
10389;SDS011;5241;47.830;12.972;2022-10-31T02:57:09;9.70;;;6.37;;
10389;SDS011;5241;47.830;12.972;2022-10-31T02:59:35;10.93;;;6.40;;
10389;SDS011;5241;47.830;12.972;2022-10-31T03:12:40;10.97;;;6.03;;
10389;SDS011;5241;47.830;12.972;2022-10-31T03:15:21;8.30;;;5.70;;
10389;SDS011;5241;47.830;12.972;2022-10-31T03:18:07;12.93;;;6.10;;
10389;SDS011;5241;47.830;12.972;2022-10-31T03:20:36;15.73;;;5.87;;
10389;SDS011;5241;47.830;12.972;2022-10-31T03:23:10;10.13;;;5.97;;
10389;SDS011;5241;47.830;12.972;2022-10-31T03:25:40;9.57;;;6.07;;
10389;SDS011;5241;47.830;12.972;2022-10-31T03:28:08;8.40;;;5.90;;
10389;SDS011;5241;47.830;12.972;2022-10-31T03:30:37;13.27;;;6.30;;
10389;SDS011;5241;47.830;12.972;2022-10-31T03:33:07;12.80;;;6.70;;
10389;SDS011;5241;47.830;12.972;2022-10-31T03:35:38;9.37;;;6.87;;
10389;SDS011;5241;47.830;12.972;2022-10-31T03:38:10;13.47;;;7.00;;
10389;SDS011;5241;47.830;12.972;2022-10-31T03:40:37;10.23;;;5.90;;
10389;SDS011;5241;47.830;12.972;2022-10-31T03:43:05;11.47;;;5.63;;
10389;SDS011;5241;47.830;12.972;2022-10-31T03:45:36;11.33;;;5.67;;
10389;SDS011;5241;47.830;12.972;2022-10-31T03:48:06;9.60;;;5.50;;
10389;SDS011;5241;47.830;12.972;2022-10-31T03:50:44;13.30;;;5.73;;
10389;SDS011;5241;47.830;12.972;2022-10-31T03:53:26;10.57;;;5.43;;
10389;SDS011;5241;47.830;12.972;2022-10-31T03:58:45;8.00;;;5.33;;
10389;SDS011;5241;47.830;12.972;2022-10-31T04:01:34;6.67;;;4.80;;
10389;SDS011;5241;47.830;12.972;2022-10-31T04:04:03;11.60;;;5.77;;
10389;SDS011;5241;47.830;12.972;2022-10-31T04:06:30;8.47;;;5.33;;
10389;SDS011;5241;47.830;12.972;2022-10-31T04:09:00;10.83;;;5.50;;
10389;SDS011;5241;47.830;12.972;2022-10-31T04:11:29;8.87;;;5.53;;
10389;SDS011;5241;47.830;12.972;2022-10-31T04:13:58;13.47;;;5.10;;
10389;SDS011;5241;47.830;12.972;2022-10-31T04:16:26;7.87;;;5.13;;
10389;SDS011;5241;47.830;12.972;2022-10-31T04:18:52;7.57;;;4.77;;
10389;SDS011;5241;47.830;12.972;2022-10-31T04:21:18;9.70;;;5.27;;
10389;SDS011;5241;47.830;12.972;2022-10-31T04:23:43;7.90;;;5.10;;
10389;SDS011;5241;47.830;12.972;2022-10-31T04:26:12;8.30;;;5.20;;
10389;SDS011;5241;47.830;12.972;2022-10-31T04:28:38;7.53;;;5.37;;
10389;SDS011;5241;47.830;12.972;2022-10-31T04:31:03;9.53;;;4.60;;
10389;SDS011;5241;47.830;12.972;2022-10-31T04:33:29;10.30;;;5.00;;
10389;SDS011;5241;47.830;12.972;2022-10-31T04:35:54;10.80;;;4.87;;
10389;SDS011;5241;47.830;12.972;2022-10-31T04:38:20;9.30;;;6.17;;
10389;SDS011;5241;47.830;12.972;2022-10-31T04:40:46;7.83;;;5.30;;
10389;SDS011;5241;47.830;12.972;2022-10-31T04:43:11;7.07;;;4.40;;
10389;SDS011;5241;47.830;12.972;2022-10-31T04:45:37;6.83;;;4.67;;
10389;SDS011;5241;47.830;12.972;2022-10-31T04:48:02;6.57;;;4.27;;
10389;SDS011;5241;47.830;12.972;2022-10-31T04:50:28;9.77;;;4.50;;
10389;SDS011;5241;47.830;12.972;2022-10-31T04:52:54;6.77;;;4.70;;
10389;SDS011;5241;47.830;12.972;2022-10-31T04:55:19;8.53;;;4.00;;
10389;SDS011;5241;47.830;12.972;2022-10-31T04:57:48;10.27;;;5.07;;
10389;SDS011;5241;47.830;12.972;2022-10-31T05:00:16;8.37;;;4.60;;
10389;SDS011;5241;47.830;12.972;2022-10-31T05:02:46;9.53;;;4.43;;
10389;SDS011;5241;47.830;12.972;2022-10-31T05:05:14;10.07;;;4.33;;
10389;SDS011;5241;47.830;12.972;2022-10-31T05:07:43;11.73;;;4.53;;
10389;SDS011;5241;47.830;12.972;2022-10-31T05:10:12;7.70;;;4.73;;
10389;SDS011;5241;47.830;12.972;2022-10-31T05:12:46;10.17;;;4.60;;
10389;SDS011;5241;47.830;12.972;2022-10-31T05:15:13;7.43;;;4.97;;
10389;SDS011;5241;47.830;12.972;2022-10-31T05:17:39;8.20;;;4.63;;
10389;SDS011;5241;47.830;12.972;2022-10-31T05:20:04;8.47;;;4.80;;
10389;SDS011;5241;47.830;12.972;2022-10-31T05:22:30;8.33;;;5.73;;
10389;SDS011;5241;47.830;12.972;2022-10-31T05:24:56;10.87;;;4.70;;
10389;SDS011;5241;47.830;12.972;2022-10-31T05:27:21;8.43;;;4.73;;
10389;SDS011;5241;47.830;12.972;2022-10-31T05:29:47;8.07;;;4.87;;
10389;SDS011;5241;47.830;12.972;2022-10-31T05:32:12;11.80;;;5.50;;
10389;SDS011;5241;47.830;12.972;2022-10-31T05:34:38;9.73;;;5.33;;
10389;SDS011;5241;47.830;12.972;2022-10-31T05:37:03;10.60;;;5.43;;
10389;SDS011;5241;47.830;12.972;2022-10-31T05:39:29;11.13;;;5.63;;
10389;SDS011;5241;47.830;12.972;2022-10-31T05:41:55;8.37;;;5.00;;
10389;SDS011;5241;47.830;12.972;2022-10-31T05:44:20;8.90;;;4.70;;
10389;SDS011;5241;47.830;12.972;2022-10-31T05:46:46;15.03;;;5.77;;
10389;SDS011;5241;47.830;12.972;2022-10-31T05:49:12;8.30;;;5.47;;
10389;SDS011;5241;47.830;12.972;2022-10-31T05:51:37;11.13;;;5.40;;
10389;SDS011;5241;47.830;12.972;2022-10-31T05:54:03;12.20;;;5.80;;
10389;SDS011;5241;47.830;12.972;2022-10-31T05:56:29;11.53;;;5.73;;
10389;SDS011;5241;47.830;12.972;2022-10-31T05:58:55;13.03;;;5.70;;
10389;SDS011;5241;47.830;12.972;2022-10-31T06:01:21;9.60;;;5.43;;
10389;SDS011;5241;47.830;12.972;2022-10-31T06:03:46;11.23;;;5.67;;
10389;SDS011;5241;47.830;12.972;2022-10-31T06:06:12;11.20;;;5.43;;
10389;SDS011;5241;47.830;12.972;2022-10-31T06:08:37;10.63;;;5.30;;
10389;SDS011;5241;47.830;12.972;2022-10-31T06:11:03;7.23;;;4.43;;
10389;SDS011;5241;47.830;12.972;2022-10-31T06:13:29;8.63;;;4.60;;
10389;SDS011;5241;47.830;12.972;2022-10-31T06:15:55;10.17;;;4.77;;
10389;SDS011;5241;47.830;12.972;2022-10-31T06:18:20;9.60;;;5.07;;
10389;SDS011;5241;47.830;12.972;2022-10-31T06:20:46;13.53;;;5.00;;
10389;SDS011;5241;47.830;12.972;2022-10-31T06:23:11;11.33;;;5.13;;
10389;SDS011;5241;47.830;12.972;2022-10-31T06:25:37;9.53;;;5.70;;
10389;SDS011;5241;47.830;12.972;2022-10-31T06:28:02;10.87;;;5.57;;
10389;SDS011;5241;47.830;12.972;2022-10-31T06:30:28;15.23;;;5.60;;
10389;SDS011;5241;47.830;12.972;2022-10-31T06:32:54;10.10;;;5.47;;
10389;SDS011;5241;47.830;12.972;2022-10-31T06:35:20;9.77;;;5.80;;
10389;SDS011;5241;47.830;12.972;2022-10-31T06:37:52;11.80;;;6.53;;
10389;SDS011;5241;47.830;12.972;2022-10-31T06:40:18;14.87;;;6.67;;
10389;SDS011;5241;47.830;12.972;2022-10-31T06:42:43;11.93;;;7.90;;
10389;SDS011;5241;47.830;12.972;2022-10-31T06:45:09;15.37;;;7.87;;
10389;SDS011;5241;47.830;12.972;2022-10-31T06:47:34;16.00;;;9.57;;
10389;SDS011;5241;47.830;12.972;2022-10-31T06:50:00;12.93;;;9.13;;
10389;SDS011;5241;47.830;12.972;2022-10-31T06:52:25;12.70;;;8.70;;
10389;SDS011;5241;47.830;12.972;2022-10-31T06:54:51;17.50;;;11.50;;
10389;SDS011;5241;47.830;12.972;2022-10-31T06:57:17;13.97;;;9.00;;
10389;SDS011;5241;47.830;12.972;2022-10-31T06:59:42;19.20;;;10.70;;
10389;SDS011;5241;47.830;12.972;2022-10-31T07:02:11;15.07;;;9.53;;
10389;SDS011;5241;47.830;12.972;2022-10-31T07:04:37;12.20;;;8.77;;
10389;SDS011;5241;47.830;12.972;2022-10-31T07:07:03;12.60;;;7.93;;
10389;SDS011;5241;47.830;12.972;2022-10-31T07:09:28;13.27;;;7.67;;
10389;SDS011;5241;47.830;12.972;2022-10-31T07:11:54;14.43;;;8.03;;
10389;SDS011;5241;47.830;12.972;2022-10-31T07:14:19;14.90;;;6.90;;
10389;SDS011;5241;47.830;12.972;2022-10-31T07:16:51;17.37;;;7.70;;
10389;SDS011;5241;47.830;12.972;2022-10-31T07:19:17;18.17;;;7.27;;
10389;SDS011;5241;47.830;12.972;2022-10-31T07:21:42;9.93;;;6.90;;
10389;SDS011;5241;47.830;12.972;2022-10-31T07:24:08;10.83;;;6.83;;
10389;SDS011;5241;47.830;12.972;2022-10-31T07:26:33;13.63;;;8.10;;
10389;SDS011;5241;47.830;12.972;2022-10-31T07:28:59;15.73;;;8.33;;
10389;SDS011;5241;47.830;12.972;2022-10-31T07:31:25;12.87;;;8.57;;
10389;SDS011;5241;47.830;12.972;2022-10-31T07:33:51;15.40;;;8.17;;
10389;SDS011;5241;47.830;12.972;2022-10-31T07:36:16;14.40;;;7.50;;
10389;SDS011;5241;47.830;12.972;2022-10-31T07:38:42;13.10;;;7.97;;
10389;SDS011;5241;47.830;12.972;2022-10-31T07:41:07;12.00;;;8.27;;
10389;SDS011;5241;47.830;12.972;2022-10-31T07:43:34;12.80;;;7.23;;
10389;SDS011;5241;47.830;12.972;2022-10-31T07:46:00;13.37;;;7.53;;
10389;SDS011;5241;47.830;12.972;2022-10-31T07:48:25;10.73;;;7.47;;
10389;SDS011;5241;47.830;12.972;2022-10-31T07:50:51;11.97;;;7.50;;
10389;SDS011;5241;47.830;12.972;2022-10-31T07:53:16;14.60;;;7.70;;
10389;SDS011;5241;47.830;12.972;2022-10-31T07:55:42;13.43;;;7.73;;
10389;SDS011;5241;47.830;12.972;2022-10-31T07:58:09;12.43;;;7.57;;
10389;SDS011;5241;47.830;12.972;2022-10-31T08:00:37;12.50;;;6.97;;
10389;SDS011;5241;47.830;12.972;2022-10-31T08:03:05;13.40;;;6.73;;
10389;SDS011;5241;47.830;12.972;2022-10-31T08:05:32;10.47;;;6.03;;
10389;SDS011;5241;47.830;12.972;2022-10-31T08:07:58;9.80;;;6.87;;
10389;SDS011;5241;47.830;12.972;2022-10-31T08:10:24;13.43;;;6.50;;
10389;SDS011;5241;47.830;12.972;2022-10-31T08:15:23;10.10;;;6.53;;
10389;SDS011;5241;47.830;12.972;2022-10-31T08:17:49;13.00;;;6.67;;
10389;SDS011;5241;47.830;12.972;2022-10-31T08:20:14;11.47;;;6.17;;
10389;SDS011;5241;47.830;12.972;2022-10-31T08:22:40;10.40;;;6.03;;
10389;SDS011;5241;47.830;12.972;2022-10-31T08:25:06;11.73;;;5.90;;
10389;SDS011;5241;47.830;12.972;2022-10-31T08:27:31;13.47;;;6.00;;
10389;SDS011;5241;47.830;12.972;2022-10-31T08:29:57;12.53;;;6.00;;
10389;SDS011;5241;47.830;12.972;2022-10-31T08:32:23;13.27;;;6.00;;
10389;SDS011;5241;47.830;12.972;2022-10-31T08:34:49;12.23;;;5.47;;
10389;SDS011;5241;47.830;12.972;2022-10-31T08:37:14;11.13;;;5.90;;
10389;SDS011;5241;47.830;12.972;2022-10-31T08:39:44;14.00;;;5.53;;
10389;SDS011;5241;47.830;12.972;2022-10-31T08:42:13;10.43;;;5.37;;
10389;SDS011;5241;47.830;12.972;2022-10-31T08:44:39;8.13;;;5.30;;
10389;SDS011;5241;47.830;12.972;2022-10-31T08:47:04;13.60;;;5.30;;
10389;SDS011;5241;47.830;12.972;2022-10-31T08:49:30;14.80;;;5.60;;
10389;SDS011;5241;47.830;12.972;2022-10-31T08:51:56;11.97;;;5.40;;
10389;SDS011;5241;47.830;12.972;2022-10-31T08:54:21;11.13;;;5.50;;
10389;SDS011;5241;47.830;12.972;2022-10-31T08:56:47;13.93;;;5.90;;
10389;SDS011;5241;47.830;12.972;2022-10-31T08:59:12;11.27;;;5.20;;
10389;SDS011;5241;47.830;12.972;2022-10-31T09:01:38;14.87;;;5.73;;
10389;SDS011;5241;47.830;12.972;2022-10-31T09:04:03;9.33;;;4.83;;
10389;SDS011;5241;47.830;12.972;2022-10-31T09:06:29;12.97;;;4.93;;
10389;SDS011;5241;47.830;12.972;2022-10-31T09:08:54;9.83;;;4.77;;
10389;SDS011;5241;47.830;12.972;2022-10-31T09:11:20;10.53;;;4.23;;
10389;SDS011;5241;47.830;12.972;2022-10-31T09:13:45;12.23;;;3.47;;
10389;SDS011;5241;47.830;12.972;2022-10-31T09:16:11;13.50;;;3.20;;
10389;SDS011;5241;47.830;12.972;2022-10-31T09:18:37;7.47;;;3.83;;
10389;SDS011;5241;47.830;12.972;2022-10-31T09:21:02;11.13;;;3.83;;
10389;SDS011;5241;47.830;12.972;2022-10-31T09:23:28;9.53;;;3.73;;
10389;SDS011;5241;47.830;12.972;2022-10-31T09:25:53;8.70;;;3.30;;
10389;SDS011;5241;47.830;12.972;2022-10-31T09:28:20;7.97;;;3.43;;
10389;SDS011;5241;47.830;12.972;2022-10-31T09:30:48;7.93;;;2.93;;
10389;SDS011;5241;47.830;12.972;2022-10-31T09:33:16;8.83;;;3.60;;
10389;SDS011;5241;47.830;12.972;2022-10-31T09:35:41;8.60;;;3.63;;
10389;SDS011;5241;47.830;12.972;2022-10-31T09:40:45;8.80;;;3.73;;
10389;SDS011;5241;47.830;12.972;2022-10-31T09:43:29;9.50;;;3.03;;
10389;SDS011;5241;47.830;12.972;2022-10-31T09:51:42;12.23;;;3.27;;
10389;SDS011;5241;47.830;12.972;2022-10-31T09:54:14;7.37;;;3.37;;
10389;SDS011;5241;47.830;12.972;2022-10-31T09:56:41;11.77;;;3.27;;
10389;SDS011;5241;47.830;12.972;2022-10-31T09:59:13;6.10;;;3.40;;
10389;SDS011;5241;47.830;12.972;2022-10-31T10:01:54;9.70;;;3.60;;
10389;SDS011;5241;47.830;12.972;2022-10-31T10:04:48;7.57;;;3.90;;
10389;SDS011;5241;47.830;12.972;2022-10-31T10:09:46;12.70;;;4.20;;
10389;SDS011;5241;47.830;12.972;2022-10-31T10:17:57;9.10;;;4.17;;
10389;SDS011;5241;47.830;12.972;2022-10-31T10:23:10;10.60;;;4.07;;
10389;SDS011;5241;47.830;12.972;2022-10-31T10:25:53;11.73;;;4.90;;
10389;SDS011;5241;47.830;12.972;2022-10-31T10:28:41;12.40;;;4.80;;
10389;SDS011;5241;47.830;12.972;2022-10-31T10:31:15;10.87;;;4.00;;
10389;SDS011;5241;47.830;12.972;2022-10-31T10:39:26;14.00;;;5.10;;
10389;SDS011;5241;47.830;12.972;2022-10-31T10:41:57;12.20;;;4.67;;
10389;SDS011;5241;47.830;12.972;2022-10-31T10:44:44;8.63;;;4.30;;
10389;SDS011;5241;47.830;12.972;2022-10-31T10:47:33;16.03;;;5.03;;
10389;SDS011;5241;47.830;12.972;2022-10-31T10:50:18;11.37;;;4.70;;
10389;SDS011;5241;47.830;12.972;2022-10-31T10:55:17;8.70;;;4.77;;
10389;SDS011;5241;47.830;12.972;2022-10-31T11:00:29;10.97;;;4.47;;
10389;SDS011;5241;47.830;12.972;2022-10-31T11:02:55;10.43;;;4.40;;
10389;SDS011;5241;47.830;12.972;2022-10-31T11:07:57;9.60;;;4.10;;
10389;SDS011;5241;47.830;12.972;2022-10-31T11:10:23;10.83;;;4.47;;
10389;SDS011;5241;47.830;12.972;2022-10-31T11:13:00;10.90;;;4.33;;
10389;SDS011;5241;47.830;12.972;2022-10-31T11:15:31;13.50;;;4.50;;
10389;SDS011;5241;47.830;12.972;2022-10-31T11:18:01;16.40;;;4.93;;
10389;SDS011;5241;47.830;12.972;2022-10-31T11:20:34;10.97;;;4.13;;
10389;SDS011;5241;47.830;12.972;2022-10-31T11:23:05;9.47;;;4.13;;
10389;SDS011;5241;47.830;12.972;2022-10-31T11:25:52;7.97;;;4.13;;
10389;SDS011;5241;47.830;12.972;2022-10-31T11:28:30;10.43;;;4.50;;
10389;SDS011;5241;47.830;12.972;2022-10-31T11:30:59;10.93;;;4.43;;
10389;SDS011;5241;47.830;12.972;2022-10-31T11:33:46;11.87;;;4.70;;
10389;SDS011;5241;47.830;12.972;2022-10-31T11:36:22;8.80;;;4.30;;
10389;SDS011;5241;47.830;12.972;2022-10-31T11:38:50;10.50;;;4.67;;
10389;SDS011;5241;47.830;12.972;2022-10-31T11:41:18;11.97;;;4.50;;
10389;SDS011;5241;47.830;12.972;2022-10-31T11:43:59;14.60;;;5.17;;
10389;SDS011;5241;47.830;12.972;2022-10-31T11:46:34;10.53;;;4.80;;
10389;SDS011;5241;47.830;12.972;2022-10-31T11:49:04;11.13;;;4.57;;
10389;SDS011;5241;47.830;12.972;2022-10-31T11:51:36;10.07;;;4.27;;
10389;SDS011;5241;47.830;12.972;2022-10-31T11:54:02;13.77;;;5.10;;
10389;SDS011;5241;47.830;12.972;2022-10-31T11:56:41;11.30;;;5.07;;
10389;SDS011;5241;47.830;12.972;2022-10-31T11:59:26;12.00;;;4.77;;
10389;SDS011;5241;47.830;12.972;2022-10-31T12:01:54;9.40;;;4.30;;
10389;SDS011;5241;47.830;12.972;2022-10-31T12:07:29;12.47;;;5.03;;
10389;SDS011;5241;47.830;12.972;2022-10-31T12:09:54;15.67;;;4.93;;
10389;SDS011;5241;47.830;12.972;2022-10-31T12:26:18;9.70;;;5.10;;
10389;SDS011;5241;47.830;12.972;2022-10-31T12:32:03;10.80;;;5.60;;
10389;SDS011;5241;47.830;12.972;2022-10-31T12:37:39;10.43;;;4.60;;
10389;SDS011;5241;47.830;12.972;2022-10-31T12:46:13;9.03;;;4.17;;
10389;SDS011;5241;47.830;12.972;2022-10-31T12:49:04;11.67;;;5.10;;
10389;SDS011;5241;47.830;12.972;2022-10-31T12:54:33;12.87;;;5.13;;
10389;SDS011;5241;47.830;12.972;2022-10-31T12:59:48;11.53;;;4.93;;
10389;SDS011;5241;47.830;12.972;2022-10-31T13:12:59;10.97;;;5.10;;
10389;SDS011;5241;47.830;12.972;2022-10-31T13:15:31;7.43;;;4.53;;
10389;SDS011;5241;47.830;12.972;2022-10-31T13:18:04;15.37;;;4.80;;
10389;SDS011;5241;47.830;12.972;2022-10-31T13:20:38;10.50;;;4.63;;
10389;SDS011;5241;47.830;12.972;2022-10-31T13:23:10;13.70;;;4.70;;
10389;SDS011;5241;47.830;12.972;2022-10-31T13:25:40;11.27;;;5.07;;
10389;SDS011;5241;47.830;12.972;2022-10-31T13:28:28;9.50;;;4.27;;
10389;SDS011;5241;47.830;12.972;2022-10-31T13:31:04;12.97;;;4.57;;
10389;SDS011;5241;47.830;12.972;2022-10-31T13:33:32;9.73;;;4.03;;
10389;SDS011;5241;47.830;12.972;2022-10-31T13:41:53;13.10;;;4.50;;
10389;SDS011;5241;47.830;12.972;2022-10-31T13:44:25;14.67;;;4.70;;
10389;SDS011;5241;47.830;12.972;2022-10-31T13:46:53;9.20;;;4.30;;
10389;SDS011;5241;47.830;12.972;2022-10-31T13:54:39;10.90;;;3.83;;
10389;SDS011;5241;47.830;12.972;2022-10-31T13:57:12;10.00;;;4.77;;
10389;SDS011;5241;47.830;12.972;2022-10-31T13:59:46;9.83;;;4.53;;
10389;SDS011;5241;47.830;12.972;2022-10-31T14:02:25;10.00;;;4.33;;
10389;SDS011;5241;47.830;12.972;2022-10-31T14:05:03;10.73;;;4.20;;
10389;SDS011;5241;47.830;12.972;2022-10-31T14:07:31;8.53;;;4.83;;
10389;SDS011;5241;47.830;12.972;2022-10-31T14:12:45;9.60;;;4.20;;
10389;SDS011;5241;47.830;12.972;2022-10-31T14:15:24;7.13;;;4.43;;
10389;SDS011;5241;47.830;12.972;2022-10-31T14:22:42;9.30;;;4.50;;
10389;SDS011;5241;47.830;12.972;2022-10-31T14:28:19;12.27;;;4.57;;
10389;SDS011;5241;47.830;12.972;2022-10-31T14:30:53;11.80;;;5.17;;
10389;SDS011;5241;47.830;12.972;2022-10-31T14:33:21;11.97;;;4.40;;
10389;SDS011;5241;47.830;12.972;2022-10-31T14:35:51;7.47;;;4.23;;
10389;SDS011;5241;47.830;12.972;2022-10-31T14:38:31;8.50;;;4.53;;
10389;SDS011;5241;47.830;12.972;2022-10-31T14:41:09;9.67;;;4.93;;
10389;SDS011;5241;47.830;12.972;2022-10-31T14:52:45;13.27;;;4.60;;
10389;SDS011;5241;47.830;12.972;2022-10-31T14:55:14;9.17;;;4.60;;
10389;SDS011;5241;47.830;12.972;2022-10-31T14:57:44;10.37;;;5.27;;
10389;SDS011;5241;47.830;12.972;2022-10-31T15:00:18;11.37;;;5.63;;
10389;SDS011;5241;47.830;12.972;2022-10-31T15:02:56;15.70;;;5.70;;
10389;SDS011;5241;47.830;12.972;2022-10-31T15:05:26;15.50;;;6.03;;
10389;SDS011;5241;47.830;12.972;2022-10-31T15:07:53;14.73;;;6.60;;
10389;SDS011;5241;47.830;12.972;2022-10-31T15:10:28;17.37;;;6.90;;
10389;SDS011;5241;47.830;12.972;2022-10-31T15:13:07;13.83;;;6.50;;
10389;SDS011;5241;47.830;12.972;2022-10-31T15:15:42;15.03;;;6.83;;
10389;SDS011;5241;47.830;12.972;2022-10-31T15:18:13;15.73;;;7.37;;
10389;SDS011;5241;47.830;12.972;2022-10-31T15:20:43;17.33;;;6.63;;
10389;SDS011;5241;47.830;12.972;2022-10-31T15:23:10;12.57;;;7.33;;
10389;SDS011;5241;47.830;12.972;2022-10-31T15:25:41;15.20;;;7.67;;
10389;SDS011;5241;47.830;12.972;2022-10-31T15:28:14;18.83;;;7.90;;
10389;SDS011;5241;47.830;12.972;2022-10-31T15:30:48;17.70;;;6.87;;
10389;SDS011;5241;47.830;12.972;2022-10-31T15:33:19;16.57;;;7.60;;
10389;SDS011;5241;47.830;12.972;2022-10-31T15:35:59;17.90;;;7.57;;
10389;SDS011;5241;47.830;12.972;2022-10-31T15:38:26;16.80;;;8.37;;
10389;SDS011;5241;47.830;12.972;2022-10-31T15:41:03;15.30;;;7.07;;
10389;SDS011;5241;47.830;12.972;2022-10-31T15:43:37;15.57;;;7.63;;
10389;SDS011;5241;47.830;12.972;2022-10-31T15:46:06;13.43;;;7.73;;
10389;SDS011;5241;47.830;12.972;2022-10-31T15:48:33;14.57;;;8.90;;
10389;SDS011;5241;47.830;12.972;2022-10-31T15:51:00;16.87;;;9.60;;
10389;SDS011;5241;47.830;12.972;2022-10-31T15:53:30;24.93;;;14.33;;
10389;SDS011;5241;47.830;12.972;2022-10-31T15:56:09;21.93;;;15.67;;
10389;SDS011;5241;47.830;12.972;2022-10-31T15:58:42;16.23;;;12.87;;
10389;SDS011;5241;47.830;12.972;2022-10-31T16:01:20;21.07;;;15.63;;
10389;SDS011;5241;47.830;12.972;2022-10-31T16:04:00;21.60;;;14.10;;
10389;SDS011;5241;47.830;12.972;2022-10-31T16:06:34;15.67;;;10.80;;
10389;SDS011;5241;47.830;12.972;2022-10-31T16:09:01;14.40;;;8.90;;
10389;SDS011;5241;47.830;12.972;2022-10-31T16:11:35;15.00;;;9.57;;
10389;SDS011;5241;47.830;12.972;2022-10-31T16:16:33;18.60;;;9.90;;
10389;SDS011;5241;47.830;12.972;2022-10-31T16:19:05;16.30;;;9.10;;
10389;SDS011;5241;47.830;12.972;2022-10-31T16:21:39;14.23;;;8.37;;
10389;SDS011;5241;47.830;12.972;2022-10-31T16:24:15;14.93;;;8.00;;
10389;SDS011;5241;47.830;12.972;2022-10-31T16:26:46;17.17;;;8.70;;
10389;SDS011;5241;47.830;12.972;2022-10-31T16:29:33;19.20;;;9.90;;
10389;SDS011;5241;47.830;12.972;2022-10-31T16:37:39;16.90;;;9.43;;
10389;SDS011;5241;47.830;12.972;2022-10-31T16:40:05;15.33;;;9.27;;
10389;SDS011;5241;47.830;12.972;2022-10-31T16:42:31;13.47;;;8.40;;
10389;SDS011;5241;47.830;12.972;2022-10-31T16:44:58;17.80;;;9.77;;
10389;SDS011;5241;47.830;12.972;2022-10-31T16:47:23;14.23;;;8.67;;
10389;SDS011;5241;47.830;12.972;2022-10-31T16:49:49;17.03;;;9.13;;
10389;SDS011;5241;47.830;12.972;2022-10-31T16:52:18;18.57;;;8.87;;
10389;SDS011;5241;47.830;12.972;2022-10-31T16:54:43;15.87;;;9.30;;
10389;SDS011;5241;47.830;12.972;2022-10-31T16:57:15;16.47;;;9.73;;
10389;SDS011;5241;47.830;12.972;2022-10-31T16:59:46;27.70;;;16.80;;
10389;SDS011;5241;47.830;12.972;2022-10-31T17:02:16;20.30;;;11.93;;
10389;SDS011;5241;47.830;12.972;2022-10-31T17:04:42;26.47;;;16.30;;
10389;SDS011;5241;47.830;12.972;2022-10-31T17:07:08;23.87;;;15.37;;
10389;SDS011;5241;47.830;12.972;2022-10-31T17:09:34;22.27;;;13.90;;
10389;SDS011;5241;47.830;12.972;2022-10-31T17:11:59;21.53;;;13.30;;
10389;SDS011;5241;47.830;12.972;2022-10-31T17:14:25;23.90;;;12.80;;
10389;SDS011;5241;47.830;12.972;2022-10-31T17:16:51;21.53;;;11.80;;
10389;SDS011;5241;47.830;12.972;2022-10-31T17:19:16;27.23;;;11.37;;
10389;SDS011;5241;47.830;12.972;2022-10-31T17:21:42;13.53;;;8.27;;
10389;SDS011;5241;47.830;12.972;2022-10-31T17:24:09;16.83;;;9.50;;
10389;SDS011;5241;47.830;12.972;2022-10-31T17:26:37;15.37;;;8.93;;